sensor_id;sensor_type;location;lat;lon;timestamp;temperature;humidity
14473;DHT22;7322;50.872;4.386;2022-11-15T00:00:59;13.80;99.90
14473;DHT22;7322;50.872;4.386;2022-11-15T00:03:30;14.00;94.50
14473;DHT22;7322;50.872;4.386;2022-11-15T00:06:03;13.90;1.00
14473;DHT22;7322;50.872;4.386;2022-11-15T00:08:31;13.90;99.90
14473;DHT22;7322;50.872;4.386;2022-11-15T00:10:59;13.90;1.00
14473;DHT22;7322;50.872;4.386;2022-11-15T00:13:27;13.80;99.90
14473;DHT22;7322;50.872;4.386;2022-11-15T00:15:57;13.60;1.00
14473;DHT22;7322;50.872;4.386;2022-11-15T00:18:25;13.50;99.90
14473;DHT22;7322;50.872;4.386;2022-11-15T00:20:54;13.60;99.90
14473;DHT22;7322;50.872;4.386;2022-11-15T00:23:21;13.80;1.00
14473;DHT22;7322;50.872;4.386;2022-11-15T00:25:55;13.60;1.00
14473;DHT22;7322;50.872;4.386;2022-11-15T00:28:22;13.70;99.90
14473;DHT22;7322;50.872;4.386;2022-11-15T00:30:49;13.70;99.90
14473;DHT22;7322;50.872;4.386;2022-11-15T00:33:16;14.00;99.90
14473;DHT22;7322;50.872;4.386;2022-11-15T00:35:43;14.10;1.00
14473;DHT22;7322;50.872;4.386;2022-11-15T00:38:12;14.30;1.00
14473;DHT22;7322;50.872;4.386;2022-11-15T00:40:39;14.20;24.00
14473;DHT22;7322;50.872;4.386;2022-11-15T00:43:08;14.10;99.90
14473;DHT22;7322;50.872;4.386;2022-11-15T00:45:34;14.00;99.90
14473;DHT22;7322;50.872;4.386;2022-11-15T00:48:02;14.00;99.90
14473;DHT22;7322;50.872;4.386;2022-11-15T00:50:29;13.90;99.90
14473;DHT22;7322;50.872;4.386;2022-11-15T00:52:56;13.50;1.00
14473;DHT22;7322;50.872;4.386;2022-11-15T00:55:25;13.20;99.90
14473;DHT22;7322;50.872;4.386;2022-11-15T00:57:52;13.30;1.00
14473;DHT22;7322;50.872;4.386;2022-11-15T01:00:19;13.30;1.00
14473;DHT22;7322;50.872;4.386;2022-11-15T01:02:47;13.30;1.00
14473;DHT22;7322;50.872;4.386;2022-11-15T01:05:16;13.50;1.00
14473;DHT22;7322;50.872;4.386;2022-11-15T01:07:45;13.50;1.00
14473;DHT22;7322;50.872;4.386;2022-11-15T01:10:20;13.60;1.00
14473;DHT22;7322;50.872;4.386;2022-11-15T01:12:59;13.60;1.00
14473;DHT22;7322;50.872;4.386;2022-11-15T01:15:28;13.60;1.00
14473;DHT22;7322;50.872;4.386;2022-11-15T01:18:04;13.60;1.00
14473;DHT22;7322;50.872;4.386;2022-11-15T01:20:31;13.70;1.00
14473;DHT22;7322;50.872;4.386;2022-11-15T01:23:05;13.50;99.90
14473;DHT22;7322;50.872;4.386;2022-11-15T01:25:41;13.50;1.00
14473;DHT22;7322;50.872;4.386;2022-11-15T01:28:24;13.70;1.00
14473;DHT22;7322;50.872;4.386;2022-11-15T01:31:05;13.70;1.00
14473;DHT22;7322;50.872;4.386;2022-11-15T01:33:40;13.70;1.00
14473;DHT22;7322;50.872;4.386;2022-11-15T01:39:18;13.90;1.00
14473;DHT22;7322;50.872;4.386;2022-11-15T01:42:23;13.80;30.10
14473;DHT22;7322;50.872;4.386;2022-11-15T01:48:13;14.00;99.90
14473;DHT22;7322;50.872;4.386;2022-11-15T01:54:05;13.90;1.00
14473;DHT22;7322;50.872;4.386;2022-11-15T02:00:10;13.90;99.90
14473;DHT22;7322;50.872;4.386;2022-11-15T02:02:53;14.00;99.90
14473;DHT22;7322;50.872;4.386;2022-11-15T02:05:30;14.00;1.00
14473;DHT22;7322;50.872;4.386;2022-11-15T02:07:59;14.10;99.90
14473;DHT22;7322;50.872;4.386;2022-11-15T02:10:28;14.00;90.20
14473;DHT22;7322;50.872;4.386;2022-11-15T02:12:56;14.00;99.90
14473;DHT22;7322;50.872;4.386;2022-11-15T02:15:25;13.90;1.00
14473;DHT22;7322;50.872;4.386;2022-11-15T02:17:58;13.90;99.90
14473;DHT22;7322;50.872;4.386;2022-11-15T02:20:56;14.00;99.90
14473;DHT22;7322;50.872;4.386;2022-11-15T02:26:34;14.00;99.90
14473;DHT22;7322;50.872;4.386;2022-11-15T02:35:56;13.80;1.00
14473;DHT22;7322;50.872;4.386;2022-11-15T02:38:37;13.70;99.90
14473;DHT22;7322;50.872;4.386;2022-11-15T02:41:09;13.80;99.90
14473;DHT22;7322;50.872;4.386;2022-11-15T02:43:56;14.00;1.00
14473;DHT22;7322;50.872;4.386;2022-11-15T02:46:32;13.90;44.70
14473;DHT22;7322;50.872;4.386;2022-11-15T02:49:19;13.90;99.90
14473;DHT22;7322;50.872;4.386;2022-11-15T02:51:51;13.80;99.90
14473;DHT22;7322;50.872;4.386;2022-11-15T02:54:22;13.90;91.60
14473;DHT22;7322;50.872;4.386;2022-11-15T02:56:52;13.90;1.00
14473;DHT22;7322;50.872;4.386;2022-11-15T03:02:23;13.90;1.00
14473;DHT22;7322;50.872;4.386;2022-11-15T03:04:56;13.90;1.00
14473;DHT22;7322;50.872;4.386;2022-11-15T03:07:29;13.80;39.80
14473;DHT22;7322;50.872;4.386;2022-11-15T03:10:04;13.90;1.00
14473;DHT22;7322;50.872;4.386;2022-11-15T03:12:37;13.90;1.00
14473;DHT22;7322;50.872;4.386;2022-11-15T03:15:14;13.80;1.00
14473;DHT22;7322;50.872;4.386;2022-11-15T03:17:54;13.60;1.00
14473;DHT22;7322;50.872;4.386;2022-11-15T03:20:28;13.60;99.90
14473;DHT22;7322;50.872;4.386;2022-11-15T03:26:21;13.80;1.00
14473;DHT22;7322;50.872;4.386;2022-11-15T03:29:01;13.90;99.90
14473;DHT22;7322;50.872;4.386;2022-11-15T03:31:45;13.90;7.50
14473;DHT22;7322;50.872;4.386;2022-11-15T03:34:20;13.70;99.90
14473;DHT22;7322;50.872;4.386;2022-11-15T03:36:50;13.60;1.00
14473;DHT22;7322;50.872;4.386;2022-11-15T03:39:17;13.70;69.60
14473;DHT22;7322;50.872;4.386;2022-11-15T03:41:49;13.70;99.90
14473;DHT22;7322;50.872;4.386;2022-11-15T03:44:30;13.80;1.00
14473;DHT22;7322;50.872;4.386;2022-11-15T03:47:03;13.80;99.90
14473;DHT22;7322;50.872;4.386;2022-11-15T03:49:34;13.80;1.00
14473;DHT22;7322;50.872;4.386;2022-11-15T03:52:02;13.80;1.00
14473;DHT22;7322;50.872;4.386;2022-11-15T03:54:30;13.60;99.90
14473;DHT22;7322;50.872;4.386;2022-11-15T03:56:58;13.60;99.90
14473;DHT22;7322;50.872;4.386;2022-11-15T03:59:25;13.50;1.00
14473;DHT22;7322;50.872;4.386;2022-11-15T04:01:53;13.60;1.00
14473;DHT22;7322;50.872;4.386;2022-11-15T04:04:20;13.70;98.20
14473;DHT22;7322;50.872;4.386;2022-11-15T04:06:48;13.70;50.70
14473;DHT22;7322;50.872;4.386;2022-11-15T04:09:15;13.80;99.90
14473;DHT22;7322;50.872;4.386;2022-11-15T04:11:42;13.70;1.00
14473;DHT22;7322;50.872;4.386;2022-11-15T04:14:10;13.60;99.90
14473;DHT22;7322;50.872;4.386;2022-11-15T04:16:37;13.50;99.90
14473;DHT22;7322;50.872;4.386;2022-11-15T04:19:04;13.60;1.00
14473;DHT22;7322;50.872;4.386;2022-11-15T04:21:49;13.60;99.90
14473;DHT22;7322;50.872;4.386;2022-11-15T04:24:33;13.50;1.00
14473;DHT22;7322;50.872;4.386;2022-11-15T04:27:00;13.60;99.90
14473;DHT22;7322;50.872;4.386;2022-11-15T04:29:28;13.60;99.90
14473;DHT22;7322;50.872;4.386;2022-11-15T04:32:02;13.60;1.00
14473;DHT22;7322;50.872;4.386;2022-11-15T04:34:29;13.60;99.90
14473;DHT22;7322;50.872;4.386;2022-11-15T04:36:56;13.60;74.40
14473;DHT22;7322;50.872;4.386;2022-11-15T04:39:42;13.60;1.00
14473;DHT22;7322;50.872;4.386;2022-11-15T04:42:10;13.50;1.00
14473;DHT22;7322;50.872;4.386;2022-11-15T04:44:38;13.40;1.00
14473;DHT22;7322;50.872;4.386;2022-11-15T04:47:05;13.40;1.00
14473;DHT22;7322;50.872;4.386;2022-11-15T04:49:32;13.40;76.80
14473;DHT22;7322;50.872;4.386;2022-11-15T04:51:59;13.30;1.00
14473;DHT22;7322;50.872;4.386;2022-11-15T04:54:26;13.30;99.90
14473;DHT22;7322;50.872;4.386;2022-11-15T04:56:53;13.30;1.00
14473;DHT22;7322;50.872;4.386;2022-11-15T04:59:20;13.30;99.90
14473;DHT22;7322;50.872;4.386;2022-11-15T05:01:48;13.40;99.90
14473;DHT22;7322;50.872;4.386;2022-11-15T05:04:15;13.20;99.90
14473;DHT22;7322;50.872;4.386;2022-11-15T05:06:51;13.30;63.50
14473;DHT22;7322;50.872;4.386;2022-11-15T05:09:18;13.10;1.00
14473;DHT22;7322;50.872;4.386;2022-11-15T05:11:46;13.10;1.00
14473;DHT22;7322;50.872;4.386;2022-11-15T05:14:13;13.10;1.00
14473;DHT22;7322;50.872;4.386;2022-11-15T05:16:40;13.10;1.00
14473;DHT22;7322;50.872;4.386;2022-11-15T05:19:09;13.00;1.00
14473;DHT22;7322;50.872;4.386;2022-11-15T05:21:37;13.00;1.00
14473;DHT22;7322;50.872;4.386;2022-11-15T05:24:04;12.90;99.90
14473;DHT22;7322;50.872;4.386;2022-11-15T05:26:31;13.00;48.80
14473;DHT22;7322;50.872;4.386;2022-11-15T05:29:00;13.00;1.00
14473;DHT22;7322;50.872;4.386;2022-11-15T05:31:27;13.00;1.00
14473;DHT22;7322;50.872;4.386;2022-11-15T05:33:56;12.90;99.90
14473;DHT22;7322;50.872;4.386;2022-11-15T05:36:31;12.80;1.00
14473;DHT22;7322;50.872;4.386;2022-11-15T05:39:00;12.90;20.70
14473;DHT22;7322;50.872;4.386;2022-11-15T05:41:31;12.90;1.00
14473;DHT22;7322;50.872;4.386;2022-11-15T05:44:00;12.80;1.00
14473;DHT22;7322;50.872;4.386;2022-11-15T05:46:29;12.70;7.00
14473;DHT22;7322;50.872;4.386;2022-11-15T05:48:57;12.60;1.00
14473;DHT22;7322;50.872;4.386;2022-11-15T05:51:24;12.70;99.90
14473;DHT22;7322;50.872;4.386;2022-11-15T05:53:55;12.60;1.00
14473;DHT22;7322;50.872;4.386;2022-11-15T05:56:25;12.70;1.00
14473;DHT22;7322;50.872;4.386;2022-11-15T05:58:53;12.70;99.90
14473;DHT22;7322;50.872;4.386;2022-11-15T06:01:20;12.70;1.00
14473;DHT22;7322;50.872;4.386;2022-11-15T06:03:47;12.70;62.40
14473;DHT22;7322;50.872;4.386;2022-11-15T06:06:14;12.70;99.90
14473;DHT22;7322;50.872;4.386;2022-11-15T06:08:41;12.50;1.00
14473;DHT22;7322;50.872;4.386;2022-11-15T06:11:10;12.40;1.00
14473;DHT22;7322;50.872;4.386;2022-11-15T06:13:37;12.60;1.00
14473;DHT22;7322;50.872;4.386;2022-11-15T06:16:04;12.50;99.90
14473;DHT22;7322;50.872;4.386;2022-11-15T06:18:32;12.40;1.00
14473;DHT22;7322;50.872;4.386;2022-11-15T06:21:00;12.30;99.90
14473;DHT22;7322;50.872;4.386;2022-11-15T06:23:32;12.40;1.00
14473;DHT22;7322;50.872;4.386;2022-11-15T06:26:00;12.20;1.00
14473;DHT22;7322;50.872;4.386;2022-11-15T06:28:30;12.20;99.90
14473;DHT22;7322;50.872;4.386;2022-11-15T06:31:02;12.30;99.90
14473;DHT22;7322;50.872;4.386;2022-11-15T06:33:29;12.20;1.00
14473;DHT22;7322;50.872;4.386;2022-11-15T06:36:00;12.20;99.90
14473;DHT22;7322;50.872;4.386;2022-11-15T06:38:27;12.10;57.60
14473;DHT22;7322;50.872;4.386;2022-11-15T06:41:01;12.00;99.90
14473;DHT22;7322;50.872;4.386;2022-11-15T06:43:29;12.20;1.00
14473;DHT22;7322;50.872;4.386;2022-11-15T06:45:58;12.10;99.90
14473;DHT22;7322;50.872;4.386;2022-11-15T06:48:25;12.00;1.00
14473;DHT22;7322;50.872;4.386;2022-11-15T06:50:52;12.10;99.90
14473;DHT22;7322;50.872;4.386;2022-11-15T06:53:19;12.10;1.00
14473;DHT22;7322;50.872;4.386;2022-11-15T06:55:46;12.00;99.90
14473;DHT22;7322;50.872;4.386;2022-11-15T06:58:13;12.00;99.90
14473;DHT22;7322;50.872;4.386;2022-11-15T07:00:43;12.00;1.00
14473;DHT22;7322;50.872;4.386;2022-11-15T07:03:10;12.00;99.90
14473;DHT22;7322;50.872;4.386;2022-11-15T07:05:38;11.90;1.00
14473;DHT22;7322;50.872;4.386;2022-11-15T07:08:06;12.00;1.00
14473;DHT22;7322;50.872;4.386;2022-11-15T07:10:33;12.10;99.90
14473;DHT22;7322;50.872;4.386;2022-11-15T07:13:00;11.90;99.90
14473;DHT22;7322;50.872;4.386;2022-11-15T07:15:27;12.10;9.70
14473;DHT22;7322;50.872;4.386;2022-11-15T07:17:55;12.00;99.90
14473;DHT22;7322;50.872;4.386;2022-11-15T07:20:22;11.90;3.60
14473;DHT22;7322;50.872;4.386;2022-11-15T07:22:49;12.00;1.00
14473;DHT22;7322;50.872;4.386;2022-11-15T07:25:16;11.90;1.00
14473;DHT22;7322;50.872;4.386;2022-11-15T07:27:43;12.00;81.20
14473;DHT22;7322;50.872;4.386;2022-11-15T07:30:11;12.10;99.90
14473;DHT22;7322;50.872;4.386;2022-11-15T07:32:38;12.10;1.00
14473;DHT22;7322;50.872;4.386;2022-11-15T07:35:08;11.90;1.00
14473;DHT22;7322;50.872;4.386;2022-11-15T07:37:59;12.00;1.00
14473;DHT22;7322;50.872;4.386;2022-11-15T07:40:28;12.00;1.00
14473;DHT22;7322;50.872;4.386;2022-11-15T07:42:59;12.00;1.00
14473;DHT22;7322;50.872;4.386;2022-11-15T07:45:26;12.00;99.90
14473;DHT22;7322;50.872;4.386;2022-11-15T07:47:53;12.00;1.00
14473;DHT22;7322;50.872;4.386;2022-11-15T07:50:23;12.10;1.00
14473;DHT22;7322;50.872;4.386;2022-11-15T07:52:53;12.00;99.90
14473;DHT22;7322;50.872;4.386;2022-11-15T07:55:21;12.10;24.20
14473;DHT22;7322;50.872;4.386;2022-11-15T07:57:48;12.00;99.90
14473;DHT22;7322;50.872;4.386;2022-11-15T08:00:16;12.10;1.00
14473;DHT22;7322;50.872;4.386;2022-11-15T08:02:43;11.90;99.90
14473;DHT22;7322;50.872;4.386;2022-11-15T08:05:10;11.70;99.90
14473;DHT22;7322;50.872;4.386;2022-11-15T08:07:38;11.80;1.00
14473;DHT22;7322;50.872;4.386;2022-11-15T08:10:06;11.80;1.00
14473;DHT22;7322;50.872;4.386;2022-11-15T08:12:35;11.80;99.90
14473;DHT22;7322;50.872;4.386;2022-11-15T08:15:02;11.70;1.00
14473;DHT22;7322;50.872;4.386;2022-11-15T08:17:30;11.50;99.90
14473;DHT22;7322;50.872;4.386;2022-11-15T08:20:00;11.60;99.90
14473;DHT22;7322;50.872;4.386;2022-11-15T08:22:28;11.80;51.00
14473;DHT22;7322;50.872;4.386;2022-11-15T08:24:56;12.00;99.90
14473;DHT22;7322;50.872;4.386;2022-11-15T08:27:24;11.70;99.90
14473;DHT22;7322;50.872;4.386;2022-11-15T08:29:53;11.80;1.00
14473;DHT22;7322;50.872;4.386;2022-11-15T08:32:22;11.80;99.90
14473;DHT22;7322;50.872;4.386;2022-11-15T08:34:49;11.80;99.90
14473;DHT22;7322;50.872;4.386;2022-11-15T08:37:18;11.80;1.00
14473;DHT22;7322;50.872;4.386;2022-11-15T08:39:45;11.80;99.90
14473;DHT22;7322;50.872;4.386;2022-11-15T08:42:13;12.00;1.00
14473;DHT22;7322;50.872;4.386;2022-11-15T08:44:40;12.00;99.90
14473;DHT22;7322;50.872;4.386;2022-11-15T08:47:07;12.00;99.90
14473;DHT22;7322;50.872;4.386;2022-11-15T08:49:37;12.00;99.90
14473;DHT22;7322;50.872;4.386;2022-11-15T08:52:04;12.10;99.90
14473;DHT22;7322;50.872;4.386;2022-11-15T08:54:31;12.20;1.00
14473;DHT22;7322;50.872;4.386;2022-11-15T08:57:00;12.10;1.00
14473;DHT22;7322;50.872;4.386;2022-11-15T08:59:28;12.30;1.00
